createdAt,value
2018-06-24T00:02:15.558Z,13.90
2018-06-24T00:04:44.038Z,11.60
2018-06-24T00:07:12.532Z,11.47
2018-06-24T00:09:40.979Z,11.03
2018-06-24T00:12:09.680Z,12.70
2018-06-24T00:14:38.162Z,14.30
2018-06-24T00:17:06.672Z,16.20
2018-06-24T00:19:35.127Z,14.03
2018-06-24T00:22:03.607Z,9.73
2018-06-24T00:24:32.036Z,11.43
2018-06-24T00:27:00.489Z,10.70
2018-06-24T00:29:28.911Z,12.10
2018-06-24T00:31:57.448Z,13.73
2018-06-24T00:34:26.082Z,14.40
2018-06-24T00:36:54.560Z,12.47
2018-06-24T00:39:23.040Z,15.40
2018-06-24T00:41:51.448Z,10.70
2018-06-24T00:44:20.013Z,12.27
2018-06-24T00:46:48.431Z,14.70
2018-06-24T00:49:16.870Z,13.70
2018-06-24T00:51:45.327Z,17.90
2018-06-24T00:54:13.776Z,12.87
2018-06-24T00:56:42.284Z,20.50
2018-06-24T00:59:20.960Z,12.70
2018-06-24T01:01:49.380Z,12.00
2018-06-24T01:04:17.792Z,14.10
2018-06-24T01:06:46.534Z,14.93
2018-06-24T01:09:15.092Z,12.40
2018-06-24T01:11:43.516Z,17.13
2018-06-24T01:14:11.972Z,12.10
2018-06-24T01:16:40.452Z,16.13
2018-06-24T01:19:09.000Z,12.00
2018-06-24T01:21:37.640Z,14.40
2018-06-24T01:24:06.066Z,15.10
2018-06-24T01:26:34.930Z,14.00
2018-06-24T01:29:03.496Z,13.80
2018-06-24T01:31:31.952Z,12.97
2018-06-24T01:34:00.376Z,17.43
2018-06-24T01:36:29.022Z,11.80
2018-06-24T01:38:57.485Z,14.97
2018-06-24T01:41:25.882Z,17.70
2018-06-24T01:43:54.620Z,17.33
2018-06-24T01:46:23.160Z,17.80
2018-06-24T01:48:51.579Z,14.53
2018-06-24T01:51:20.556Z,14.50
2018-06-24T01:53:49.009Z,17.50
2018-06-24T01:56:17.491Z,16.50
2018-06-24T01:58:45.915Z,16.43
2018-06-24T02:01:14.458Z,18.73
2018-06-24T02:03:43.157Z,14.50
2018-06-24T02:06:11.663Z,13.70
2018-06-24T02:08:40.135Z,16.97
2018-06-24T02:11:08.549Z,16.30
2018-06-24T02:13:38.000Z,12.37
2018-06-24T02:16:06.871Z,13.83
2018-06-24T02:18:35.355Z,14.15
2018-06-24T02:21:03.775Z,10.90
2018-06-24T02:23:32.214Z,13.40
2018-06-24T02:26:00.676Z,11.03
2018-06-24T02:28:29.133Z,16.60
2018-06-24T02:30:57.599Z,18.63
2018-06-24T02:33:26.034Z,10.73
2018-06-24T02:35:54.474Z,15.00
2018-06-24T02:38:22.931Z,13.13
2018-06-24T02:40:51.486Z,12.33
2018-06-24T02:43:19.904Z,17.93
2018-06-24T02:45:48.449Z,12.80
2018-06-24T02:48:16.909Z,14.97
2018-06-24T02:50:45.325Z,14.00
2018-06-24T02:53:13.771Z,17.43
2018-06-24T02:55:42.187Z,12.60
2018-06-24T02:58:10.607Z,14.23
2018-06-24T03:00:39.075Z,16.67
2018-06-24T03:03:07.565Z,15.50
2018-06-24T03:05:41.867Z,13.60
2018-06-24T03:08:10.287Z,12.60
2018-06-24T03:10:38.919Z,12.33
2018-06-24T03:13:07.424Z,13.23
2018-06-24T03:15:35.850Z,14.10
2018-06-24T03:18:04.339Z,11.10
2018-06-24T03:20:32.811Z,9.50
2018-06-24T03:23:01.315Z,11.40
2018-06-24T03:25:29.767Z,13.27
2018-06-24T03:27:58.251Z,12.37
2018-06-24T03:30:26.700Z,15.57
2018-06-24T03:32:55.291Z,12.10
2018-06-24T03:35:23.673Z,12.97
2018-06-24T03:37:52.406Z,14.77
2018-06-24T03:40:20.835Z,15.33
2018-06-24T03:42:49.263Z,15.43
2018-06-24T03:45:17.689Z,14.80
2018-06-24T03:47:46.251Z,14.63
2018-06-24T03:50:14.815Z,13.57
2018-06-24T03:52:43.343Z,11.97
2018-06-24T03:55:11.933Z,19.90
2018-06-24T03:57:40.349Z,22.47
2018-06-24T04:00:09.275Z,20.20
2018-06-24T04:02:37.725Z,15.77
2018-06-24T04:05:06.291Z,15.53
2018-06-24T04:07:34.898Z,18.63
2018-06-24T04:10:03.376Z,13.30
2018-06-24T04:12:31.880Z,15.63
2018-06-24T04:15:00.311Z,14.10
2018-06-24T04:17:28.726Z,13.30
2018-06-24T04:19:57.127Z,12.40
2018-06-24T04:22:25.599Z,11.97
2018-06-24T04:24:54.054Z,14.90
2018-06-24T04:27:22.511Z,12.63
2018-06-24T04:29:51.093Z,14.03
2018-06-24T04:32:19.525Z,13.17
2018-06-24T04:34:47.943Z,11.90
2018-06-24T04:37:17.050Z,13.97
2018-06-24T04:39:45.524Z,14.60
2018-06-24T04:42:13.916Z,11.00
2018-06-24T04:44:42.360Z,13.67
2018-06-24T04:47:10.792Z,11.47
2018-06-24T04:49:39.246Z,13.33
2018-06-24T04:52:07.356Z,16.47
2018-06-24T04:54:35.860Z,14.73
2018-06-24T04:57:04.460Z,12.33
2018-06-24T04:59:32.923Z,14.87
2018-06-24T05:02:01.388Z,13.30
2018-06-24T05:04:29.776Z,14.90
2018-06-24T05:06:58.378Z,15.43
2018-06-24T05:09:26.892Z,16.70
2018-06-24T05:11:55.332Z,12.80
2018-06-24T05:14:23.765Z,13.80
2018-06-24T05:16:52.248Z,11.80
2018-06-24T05:19:20.717Z,12.13
2018-06-24T05:21:49.192Z,13.53
2018-06-24T05:24:17.652Z,12.43
2018-06-24T05:26:46.075Z,16.37
2018-06-24T05:29:14.595Z,13.03
2018-06-24T05:31:43.101Z,12.83
2018-06-24T05:34:11.576Z,14.00
2018-06-24T05:36:41.385Z,13.50
2018-06-24T05:39:11.487Z,17.27
2018-06-24T05:41:39.919Z,13.33
2018-06-24T05:44:08.439Z,12.70
2018-06-24T05:46:36.852Z,14.83
2018-06-24T05:49:05.633Z,14.43
2018-06-24T05:51:34.041Z,16.03
2018-06-24T05:54:02.550Z,19.27
2018-06-24T05:56:31.013Z,18.30
2018-06-24T05:58:59.433Z,21.40
2018-06-24T06:01:27.976Z,18.50
2018-06-24T06:03:56.541Z,19.03
2018-06-24T06:06:24.965Z,19.60
2018-06-24T06:08:53.603Z,21.40
2018-06-24T06:11:22.556Z,19.97
2018-06-24T06:13:51.132Z,20.70
2018-06-24T06:16:20.547Z,22.03
2018-06-24T06:18:49.034Z,24.87
2018-06-24T06:21:17.495Z,24.37
2018-06-24T06:23:46.016Z,25.10
2018-06-24T06:26:14.456Z,26.63
2018-06-24T06:28:42.949Z,28.57
2018-06-24T06:31:11.427Z,27.10
2018-06-24T06:33:39.862Z,28.20
2018-06-24T06:36:08.484Z,20.43
2018-06-24T06:38:36.994Z,21.97
2018-06-24T06:41:05.574Z,29.50
2018-06-24T06:43:33.756Z,21.83
2018-06-24T06:46:02.220Z,22.90
2018-06-24T06:48:30.638Z,27.10
2018-06-24T06:50:59.121Z,27.00
2018-06-24T06:53:27.563Z,25.00
2018-06-24T06:55:55.996Z,27.83
2018-06-24T06:58:24.483Z,23.03
2018-06-24T07:00:52.974Z,23.33
2018-06-24T07:03:21.431Z,23.30
2018-06-24T07:05:49.955Z,29.53
2018-06-24T07:08:18.420Z,24.57
2018-06-24T07:10:46.865Z,20.50
2018-06-24T07:13:15.351Z,21.53
2018-06-24T07:15:43.876Z,24.63
2018-06-24T07:18:12.332Z,21.73
2018-06-24T07:20:40.900Z,21.37
2018-06-24T07:23:09.307Z,26.57
2018-06-24T07:25:37.723Z,22.47
2018-06-24T07:28:06.477Z,19.30
2018-06-24T07:30:35.099Z,24.87
2018-06-24T07:33:03.597Z,19.60
2018-06-24T07:35:32.077Z,13.53
2018-06-24T07:38:00.656Z,13.83
2018-06-24T07:40:29.187Z,15.80
2018-06-24T07:42:57.709Z,14.80
2018-06-24T07:45:26.135Z,14.60
2018-06-24T07:47:54.635Z,14.57
2018-06-24T07:50:23.200Z,17.57
2018-06-24T07:52:51.568Z,13.93
2018-06-24T07:55:20.213Z,13.53
2018-06-24T07:57:48.909Z,14.40
2018-06-24T08:00:17.625Z,16.53
2018-06-24T08:02:46.016Z,11.37
2018-06-24T08:05:14.606Z,18.20
2018-06-24T08:07:43.038Z,16.80
2018-06-24T08:10:11.482Z,12.37
2018-06-24T08:12:39.912Z,16.60
2018-06-24T08:15:08.385Z,15.63
2018-06-24T08:17:36.799Z,18.33
2018-06-24T08:20:05.516Z,19.13
2018-06-24T08:22:34.036Z,18.67
2018-06-24T08:25:02.547Z,15.20
2018-06-24T08:27:31.029Z,20.43
2018-06-24T08:29:59.469Z,13.83
2018-06-24T08:32:27.876Z,17.63
2018-06-24T08:34:56.329Z,12.30
2018-06-24T08:37:24.809Z,12.60
2018-06-24T08:39:53.307Z,14.33
2018-06-24T08:42:27.987Z,15.10
2018-06-24T08:44:56.455Z,13.40
2018-06-24T08:47:24.880Z,12.30
2018-06-24T08:49:53.407Z,17.20
2018-06-24T08:52:21.891Z,12.50
2018-06-24T08:54:50.360Z,15.20
2018-06-24T08:57:18.863Z,16.57
2018-06-24T08:59:47.401Z,16.57
2018-06-24T09:02:15.917Z,15.70
2018-06-24T09:04:44.327Z,14.07
2018-06-24T09:07:12.867Z,18.10
2018-06-24T09:09:41.677Z,15.83
2018-06-24T09:12:10.075Z,15.00
2018-06-24T09:14:38.580Z,17.70
2018-06-24T09:17:07.071Z,18.33
2018-06-24T09:19:35.640Z,14.60
2018-06-24T09:22:04.629Z,18.47
2018-06-24T09:24:33.196Z,14.07
2018-06-24T09:27:01.780Z,20.00
2018-06-24T09:29:30.599Z,15.80
2018-06-24T09:31:59.360Z,15.40
2018-06-24T09:34:27.939Z,15.43
2018-06-24T09:36:56.411Z,16.17
2018-06-24T09:39:24.931Z,19.17
2018-06-24T09:41:53.348Z,22.07
2018-06-24T09:44:21.937Z,14.83
2018-06-24T09:46:50.361Z,18.57
2018-06-24T09:49:19.781Z,13.87
2018-06-24T09:51:49.109Z,13.63
2018-06-24T09:54:18.057Z,15.50
2018-06-24T09:56:47.609Z,17.03
2018-06-24T09:59:16.309Z,14.57
2018-06-24T10:01:44.787Z,14.03
2018-06-24T10:04:13.244Z,14.33
2018-06-24T10:06:42.831Z,15.20
2018-06-24T10:09:11.880Z,13.40
2018-06-24T10:11:40.334Z,16.53
2018-06-24T10:14:09.738Z,15.50
2018-06-24T10:16:38.356Z,15.83
2018-06-24T10:19:06.824Z,12.20
2018-06-24T10:21:35.259Z,13.10
2018-06-24T10:24:03.820Z,11.30
2018-06-24T10:26:32.219Z,9.83
2018-06-24T10:29:00.679Z,15.90
2018-06-24T10:31:29.129Z,9.90
2018-06-24T10:33:57.569Z,10.13
2018-06-24T10:36:26.023Z,15.37
2018-06-24T10:38:54.539Z,12.57
2018-06-24T10:41:23.985Z,18.10
2018-06-24T10:43:52.439Z,15.00
2018-06-24T10:46:21.101Z,12.83
2018-06-24T10:48:49.581Z,9.80
2018-06-24T10:51:18.023Z,12.70
2018-06-24T10:53:46.585Z,13.07
2018-06-24T10:56:15.077Z,9.63
2018-06-24T10:58:43.544Z,11.93
2018-06-24T11:01:12.010Z,8.37
2018-06-24T11:03:40.652Z,10.73
2018-06-24T11:06:10.072Z,7.07
2018-06-24T11:08:39.436Z,8.83
2018-06-24T11:11:08.034Z,6.03
2018-06-24T11:13:36.570Z,12.67
2018-06-24T11:16:05.270Z,11.50
2018-06-24T11:18:33.749Z,9.03
2018-06-24T11:21:02.205Z,7.57
2018-06-24T11:23:30.764Z,8.33
2018-06-24T11:25:59.320Z,10.20
2018-06-24T11:28:29.361Z,10.00
2018-06-24T11:30:58.226Z,10.70
2018-06-24T11:33:26.736Z,7.00
2018-06-24T11:35:55.167Z,7.73
2018-06-24T11:38:23.463Z,7.40
2018-06-24T11:40:51.967Z,11.53
2018-06-24T11:43:20.537Z,9.80
2018-06-24T11:45:48.975Z,6.47
2018-06-24T11:48:17.441Z,6.53
2018-06-24T11:50:46.074Z,7.77
2018-06-24T11:53:14.589Z,9.43
2018-06-24T11:55:43.078Z,7.53
2018-06-24T11:58:11.547Z,9.23
2018-06-24T12:00:40.530Z,10.17
2018-06-24T12:03:09.072Z,9.27
2018-06-24T12:05:37.549Z,9.83
2018-06-24T12:08:06.448Z,10.60
2018-06-24T12:10:35.007Z,11.30
2018-06-24T12:13:03.623Z,5.73
2018-06-24T12:15:32.094Z,7.70
2018-06-24T12:18:00.527Z,6.33
2018-06-24T12:20:29.041Z,5.30
2018-06-24T12:22:57.496Z,5.57
2018-06-24T12:25:26.002Z,8.80
2018-06-24T12:27:54.453Z,4.13
2018-06-24T12:30:23.115Z,4.50
2018-06-24T12:32:52.493Z,6.07
2018-06-24T12:35:20.940Z,4.67
2018-06-24T12:37:49.348Z,7.40
2018-06-24T12:40:22.056Z,5.40
2018-06-24T12:42:50.478Z,4.87
2018-06-24T12:45:19.110Z,3.40
2018-06-24T12:47:47.570Z,4.67
2018-06-24T12:50:16.062Z,3.80
2018-06-24T12:52:44.580Z,4.57
2018-06-24T12:55:13.200Z,3.57
2018-06-24T12:57:41.859Z,5.37
2018-06-24T13:00:10.541Z,4.50
2018-06-24T13:02:39.051Z,5.13
2018-06-24T13:05:07.820Z,5.47
2018-06-24T13:07:36.592Z,4.27
2018-06-24T13:10:05.804Z,5.17
2018-06-24T13:12:34.236Z,7.20
2018-06-24T13:15:02.850Z,6.33
2018-06-24T13:17:31.480Z,6.10
2018-06-24T13:19:59.912Z,8.90
2018-06-24T13:22:28.340Z,8.53
2018-06-24T13:24:56.749Z,9.43
2018-06-24T13:27:25.234Z,5.17
2018-06-24T13:29:54.516Z,9.33
2018-06-24T13:32:23.039Z,4.77
2018-06-24T13:34:51.495Z,5.47
2018-06-24T13:37:20.176Z,4.70
2018-06-24T13:39:48.615Z,4.07
2018-06-24T13:42:17.142Z,7.40
2018-06-24T13:44:46.581Z,5.93
2018-06-24T13:47:15.119Z,4.17
2018-06-24T13:49:43.626Z,4.83
2018-06-24T13:52:12.031Z,6.57
2018-06-24T13:54:40.600Z,9.43
2018-06-24T13:57:09.144Z,5.50
2018-06-24T13:59:37.744Z,5.77
2018-06-24T14:02:06.204Z,5.33
2018-06-24T14:04:34.599Z,9.07
2018-06-24T14:07:03.136Z,10.70
2018-06-24T14:09:31.538Z,6.97
2018-06-24T14:12:00.098Z,6.30
2018-06-24T14:14:28.602Z,7.40
2018-06-24T14:16:57.037Z,6.47
2018-06-24T14:19:29.583Z,4.63
2018-06-24T14:21:58.028Z,5.80
2018-06-24T14:24:26.471Z,13.47
2018-06-24T14:26:54.941Z,8.70
2018-06-24T14:29:23.349Z,4.43
2018-06-24T14:31:51.754Z,5.73
2018-06-24T14:34:20.181Z,7.27
2018-06-24T14:36:48.740Z,8.13
2018-06-24T14:39:17.685Z,11.37
2018-06-24T14:41:46.178Z,7.73
2018-06-24T14:44:14.597Z,6.50
2018-06-24T14:46:44.192Z,8.37
2018-06-24T14:49:12.658Z,7.30
2018-06-24T14:51:41.406Z,9.17
2018-06-24T14:54:10.441Z,8.67
2018-06-24T14:56:38.820Z,10.50
2018-06-24T14:59:07.855Z,8.30
2018-06-24T15:01:36.414Z,8.00
2018-06-24T15:04:04.845Z,5.23
2018-06-24T15:06:33.741Z,6.60
2018-06-24T15:09:02.236Z,7.70
2018-06-24T15:11:30.661Z,8.90
2018-06-24T15:13:59.570Z,6.17
2018-06-24T15:16:28.046Z,8.83
2018-06-24T15:18:56.511Z,7.47
2018-06-24T15:21:24.947Z,10.00
2018-06-24T15:23:53.417Z,9.33
2018-06-24T15:26:21.872Z,7.23
2018-06-24T15:28:51.090Z,8.07
2018-06-24T15:31:19.790Z,7.93
2018-06-24T15:33:48.198Z,7.37
2018-06-24T15:36:16.684Z,6.03
2018-06-24T15:38:45.049Z,7.03
2018-06-24T15:41:13.581Z,7.83
2018-06-24T15:43:42.008Z,6.57
2018-06-24T15:46:10.852Z,7.80
2018-06-24T15:48:42.848Z,13.30
2018-06-24T15:51:17.445Z,8.23
2018-06-24T15:53:46.116Z,9.60
2018-06-24T15:56:14.545Z,9.13
2018-06-24T15:58:43.009Z,8.37
2018-06-24T16:01:11.758Z,9.60
2018-06-24T16:03:40.185Z,23.70
2018-06-24T16:06:09.524Z,9.93
2018-06-24T16:08:37.951Z,7.93
2018-06-24T16:11:06.501Z,14.20
2018-06-24T16:13:35.040Z,7.30
2018-06-24T16:16:03.476Z,10.20
2018-06-24T16:18:32.134Z,7.77
2018-06-24T16:21:01.162Z,10.00
2018-06-24T16:23:29.654Z,18.53
2018-06-24T16:25:58.228Z,63.97
2018-06-24T16:28:26.691Z,15.20
2018-06-24T16:30:55.129Z,17.90
2018-06-24T16:33:23.651Z,25.73
2018-06-24T16:35:52.131Z,12.83
2018-06-24T16:38:20.854Z,37.07
2018-06-24T16:40:49.284Z,28.13
2018-06-24T16:43:17.754Z,39.90
2018-06-24T16:45:46.224Z,28.00
2018-06-24T16:48:14.760Z,12.87
2018-06-24T16:50:43.425Z,9.87
2018-06-24T16:53:11.840Z,12.20
2018-06-24T16:55:40.284Z,10.87
2018-06-24T16:58:08.978Z,17.20
2018-06-24T17:00:37.488Z,19.90
2018-06-24T17:03:06.473Z,18.20
2018-06-24T17:05:35.020Z,28.87
2018-06-24T17:08:03.497Z,15.73
2018-06-24T17:10:32.115Z,18.70
2018-06-24T17:13:00.646Z,9.70
2018-06-24T17:15:29.214Z,8.87
2018-06-24T17:17:57.757Z,21.60
2018-06-24T17:20:26.189Z,15.63
2018-06-24T17:22:55.949Z,9.67
2018-06-24T17:25:24.686Z,8.40
2018-06-24T17:27:53.176Z,8.27
2018-06-24T17:30:21.688Z,7.83
2018-06-24T17:32:50.115Z,7.40
2018-06-24T17:35:18.536Z,12.37
2018-06-24T17:37:47.066Z,10.57
2018-06-24T17:40:15.481Z,8.60
2018-06-24T17:42:43.944Z,12.20
2018-06-24T17:45:12.389Z,10.40
2018-06-24T17:47:40.817Z,13.17
2018-06-24T17:50:09.291Z,13.23
2018-06-24T17:52:37.713Z,7.33
2018-06-24T17:55:06.201Z,13.80
2018-06-24T17:57:34.689Z,9.97
2018-06-24T18:00:03.458Z,10.50
2018-06-24T18:02:31.909Z,9.83
2018-06-24T18:05:00.381Z,8.93
2018-06-24T18:07:29.030Z,11.13
2018-06-24T18:09:57.486Z,8.50
2018-06-24T18:12:25.926Z,8.87
2018-06-24T18:14:54.508Z,7.00
2018-06-24T18:17:23.131Z,11.20
2018-06-24T18:19:53.561Z,8.90
2018-06-24T18:22:22.509Z,8.03
2018-06-24T18:24:50.944Z,11.33
2018-06-24T18:27:19.277Z,7.13
2018-06-24T18:29:48.514Z,13.73
2018-06-24T18:32:16.796Z,9.43
2018-06-24T18:34:45.759Z,10.53
2018-06-24T18:37:14.370Z,8.47
2018-06-24T18:39:42.551Z,7.20
2018-06-24T18:42:10.917Z,9.93
2018-06-24T18:44:39.376Z,11.53
2018-06-24T18:47:07.876Z,19.63
2018-06-24T18:49:36.417Z,10.20
2018-06-24T18:52:04.944Z,8.27
2018-06-24T18:54:33.147Z,15.10
2018-06-24T18:57:02.618Z,11.03
2018-06-24T18:59:31.132Z,8.23
2018-06-24T19:01:59.368Z,8.90
2018-06-24T19:04:27.791Z,13.70
2018-06-24T19:06:56.330Z,7.63
2018-06-24T19:09:25.114Z,8.50
2018-06-24T19:11:53.532Z,17.80
2018-06-24T19:14:22.042Z,8.90
2018-06-24T19:16:50.657Z,8.20
2018-06-24T19:19:19.164Z,10.50
2018-06-24T19:21:47.777Z,11.63
2018-06-24T19:24:16.577Z,10.80
2018-06-24T19:26:45.139Z,7.30
2018-06-24T19:29:13.584Z,11.07
2018-06-24T19:31:42.741Z,9.37
2018-06-24T19:34:11.144Z,10.00
2018-06-24T19:36:40.200Z,10.20
2018-06-24T19:39:11.522Z,10.20
2018-06-24T19:41:40.103Z,7.87
2018-06-24T19:44:08.681Z,8.17
2018-06-24T19:46:37.160Z,10.47
2018-06-24T19:49:05.685Z,19.43
2018-06-24T19:51:34.146Z,9.57
2018-06-24T19:54:02.300Z,11.17
2018-06-24T19:56:30.753Z,12.27
2018-06-24T19:59:00.341Z,10.23
2018-06-24T20:01:29.273Z,11.00
2018-06-24T20:03:57.976Z,9.67
2018-06-24T20:06:26.460Z,10.63
2018-06-24T20:08:55.113Z,10.03
2018-06-24T20:11:23.551Z,9.00
2018-06-24T20:13:52.750Z,9.33
2018-06-24T20:16:21.450Z,7.67
2018-06-24T20:18:50.216Z,8.37
2018-06-24T20:21:18.636Z,10.57
2018-06-24T20:23:47.081Z,10.90
2018-06-24T20:26:15.564Z,9.73
2018-06-24T20:28:45.127Z,9.87
2018-06-24T20:31:13.585Z,9.30
2018-06-24T20:33:42.061Z,9.83
2018-06-24T20:36:10.517Z,5.67
2018-06-24T20:38:39.150Z,10.40
2018-06-24T20:41:07.321Z,8.40
2018-06-24T20:43:35.993Z,11.73
2018-06-24T20:46:04.591Z,13.23
2018-06-24T20:48:33.716Z,7.87
2018-06-24T20:51:04.248Z,11.37
2018-06-24T20:53:33.012Z,7.80
2018-06-24T20:56:01.422Z,13.83
2018-06-24T20:58:29.843Z,8.23
2018-06-24T21:00:58.505Z,12.50
2018-06-24T21:03:26.988Z,13.93
2018-06-24T21:05:55.380Z,10.47
2018-06-24T21:08:24.167Z,12.07
2018-06-24T21:10:52.707Z,13.30
2018-06-24T21:13:21.467Z,14.30
2018-06-24T21:15:49.974Z,15.93
2018-06-24T21:18:18.492Z,13.53
2018-06-24T21:20:47.096Z,10.43
2018-06-24T21:23:15.608Z,9.77
2018-06-24T21:25:44.084Z,11.10
2018-06-24T21:28:17.024Z,14.87
2018-06-24T21:30:45.500Z,14.00
2018-06-24T21:33:14.417Z,10.70
2018-06-24T21:35:42.885Z,12.73
2018-06-24T21:38:11.448Z,12.93
2018-06-24T21:40:39.954Z,10.17
2018-06-24T21:43:08.389Z,13.23
2018-06-24T21:45:36.827Z,9.60
2018-06-24T21:48:06.104Z,13.87
2018-06-24T21:50:34.700Z,13.87
2018-06-24T21:53:03.140Z,17.57
2018-06-24T21:55:31.768Z,14.40
2018-06-24T21:58:00.268Z,12.30
2018-06-24T22:00:28.926Z,15.07
2018-06-24T22:02:57.345Z,15.43
2018-06-24T22:05:26.039Z,14.30
2018-06-24T22:07:54.524Z,25.03
2018-06-24T22:10:23.276Z,28.70
2018-06-24T22:12:51.871Z,24.27
2018-06-24T22:15:20.495Z,17.60
2018-06-24T22:17:48.937Z,20.30
2018-06-24T22:20:17.127Z,15.50
2018-06-24T22:22:46.105Z,20.77
2018-06-24T22:25:14.276Z,16.20
2018-06-24T22:27:42.942Z,18.67
2018-06-24T22:30:11.440Z,22.87
2018-06-24T22:32:39.578Z,24.67
2018-06-24T22:35:08.013Z,33.07
2018-06-24T22:37:36.898Z,24.67
2018-06-24T22:40:05.446Z,24.20
2018-06-24T22:42:33.948Z,36.80
2018-06-24T22:45:02.119Z,31.33
2018-06-24T22:47:30.572Z,20.67
2018-06-24T22:49:59.020Z,14.30
2018-06-24T22:52:27.544Z,18.70
2018-06-24T22:54:56.268Z,17.07
2018-06-24T22:57:24.888Z,37.13
2018-06-24T23:00:15.344Z,24.53
2018-06-24T23:02:44.424Z,26.87
2018-06-24T23:05:13.552Z,16.77
2018-06-24T23:07:43.226Z,16.10
2018-06-24T23:10:12.412Z,16.57
2018-06-24T23:12:41.066Z,14.20
2018-06-24T23:15:10.675Z,17.40
2018-06-24T23:17:39.506Z,14.37
2018-06-24T23:20:08.807Z,14.17
2018-06-24T23:22:37.515Z,13.80
2018-06-24T23:25:06.159Z,16.67
2018-06-24T23:27:34.633Z,19.80
2018-06-24T23:30:03.202Z,17.07
2018-06-24T23:32:31.708Z,23.30
2018-06-24T23:35:00.608Z,19.53
2018-06-24T23:37:29.236Z,15.50
2018-06-24T23:39:57.750Z,11.67
2018-06-24T23:42:26.196Z,15.60
2018-06-24T23:44:54.671Z,13.10
2018-06-24T23:47:23.096Z,14.00
2018-06-24T23:49:51.628Z,15.93
2018-06-24T23:52:20.098Z,10.80
2018-06-24T23:54:48.592Z,11.70
2018-06-24T23:57:17.056Z,11.10
2018-06-24T23:59:45.477Z,10.97
